Airfield :
LOGIN :

Register | Disclaimer

   EN    FR    IT 

 










Legend :    VFR   Marginal VFR   IFR   Intensive IFR   Very Intensive IFR
Visi :
Ceiling :
>= 8 km
>= 3000ft
5 to 8 km
1000 to 3000 ft
1500m to 5 km
500 to 1000 ft
800 to 1500m
200 to 500 ft
< 800m
< 200 ft
Symbols :   Thunderstorms  Fog  Heavy snow  Heavy precipitations  Wind > 20 kt
SIGMETs :     Misc.  Thunderstorms  Icing  Turbulence  Mountain Waves  Volcanic Ashes






- Airport Elevation : 776 ft
- IATA code : RMS


ETAR - Ramstein Air Base

CURRENT METAR :
  • 230656Z 09005KT 9999 OVC007 11/11 A3001 RMK AO2A SLP168 T01050105 $

EXPIRED METARs :
  • 230636Z 09004KT 9999 OVC009 10/10 A3002 RMK AO2A SLP172 $
  • 230556Z 07003KT 9999 OVC011 10/10 A3003 RMK AO2A SLP175 T00960096 10096 20055 57012 $
  • 230546Z 08004KT 9999 OVC011 10/10 A3002 RMK AO2A SLP172 $
  • 230536Z 10005KT 9999 OVC012 09/09 A3003 RMK AO2A SLP175 $
  • 230456Z 09003KT 9999 OVC013 09/09 A3004 RMK AO2A SLP178 T00880088 $
  • 230441Z 00000KT 9999 OVC013 09/09 A3005 RMK AO2A SLP181 $
  • 230431Z 00000KT 9999 OVC015 09/09 A3005 RMK AO2A SLP181 $
  • 230421Z AUTO 00000KT 9999 OVC014 08/08 A3005 RMK AO2 SLP181 $
  • 230411Z AUTO 00000KT 9999 OVC016 08/08 A3005 RMK AO2 SLP181 $

TAF AMD TAF ETAR
Valid from the 23 at 04:00 until the 24 at 08:00 UTC


230449Z 2304/2408 VRB06KT 6000 BR BKN015 QNH3004INS
BECMG 2307/2308 08009KT 9999 NSW FEW010 SCT020 QNH2998INS
BECMG 2321/2322 VRB06KT 8000 BR SKC QNH3003INS TX14/2315Z TN06/2401Z



MET'MAP, your aeronautical weather chart ! - Copyright ORBIFLY December 2007 - Disclaimer

ORBIFLY MET'MAP TEAM :

Programming & Development : Alexandra Zaïnal
Concept & Development : Baudouin d'Aumeries
Co-Development & Prog : Marc-Olivier Méhu
Technical & hardware support : Manuel Goepfert

Contact : metmap@orbifly.com




SOURCES & CREDITS :

   NOAA